Time;durP1;ratioP1;P1;durP2;ratioP2;P2;SDS_P1;SDS_P2;PMS_P1;PMS_P2;Temp;Humidity;BMP_temperature;BMP_pressure;BME280_temperature;BME280_humidity;BME280_pressure;Samples;Min_cycle;Max_cycle;Signal;HPM_P1;HPM_P2
2022/11/17 00:01:59;;;;;;;28.13;20.25;;;12.60;1.00;;;;;;5034226;28;20050;-59
2022/11/17 00:04:27;;;;;;;27.95;20.15;;;12.60;1.00;;;;;;5033938;28;20491;-58
2022/11/17 00:06:53;;;;;;;31.02;21.13;;;12.50;1.00;;;;;;5033240;28;20048;-58
2022/11/17 00:09:19;;;;;;;25.95;20.23;;;12.60;1.00;;;;;;5034659;28;20410;-54
2022/11/17 00:14:40;;;;;;;27.85;20.17;;;12.50;1.00;;;;;;5011452;28;20475;-53
2022/11/17 00:17:11;;;;;;;25.60;19.30;;;12.40;1.00;;;;;;5034376;28;20021;-55
2022/11/17 00:22:21;;;;;;;27.15;19.40;;;12.40;1.00;;;;;;5027757;28;20082;-55
2022/11/17 00:24:48;;;;;;;27.52;19.90;;;12.30;1.00;;;;;;5034343;28;20092;-58
2022/11/17 00:27:14;;;;;;;25.65;19.38;;;12.30;1.00;;;;;;5034202;28;20026;-56
2022/11/17 00:29:40;;;;;;;27.60;21.08;;;12.20;1.00;;;;;;5033975;28;20013;-55
2022/11/17 00:34:57;;;;;;;22.73;17.92;;;12.30;1.00;;;;;;5034303;28;20072;-56
2022/11/17 00:37:23;;;;;;;24.05;18.77;;;12.30;1.00;;;;;;5032557;28;20387;-54
2022/11/17 00:39:49;;;;;;;24.40;19.25;;;12.20;1.00;;;;;;5030773;28;20060;-56
2022/11/17 00:42:58;;;;;;;21.27;16.77;;;12.30;1.00;;;;;;5034090;28;20521;-52
2022/11/17 00:45:24;;;;;;;22.70;16.90;;;12.20;1.00;;;;;;5019703;28;20079;-55
2022/11/17 00:47:49;;;;;;;22.73;17.90;;;12.20;1.00;;;;;;5034208;28;20033;-56
2022/11/17 00:50:15;;;;;;;23.27;17.65;;;12.20;1.00;;;;;;5032501;28;20032;-56
2022/11/17 00:52:40;;;;;;;22.63;18.05;;;12.10;1.00;;;;;;5032732;28;20390;-56
2022/11/17 00:55:06;;;;;;;24.85;19.63;;;12.10;1.00;;;;;;5032199;28;20026;-55
2022/11/17 00:57:32;;;;;;;24.95;19.08;;;12.10;1.00;;;;;;5032385;28;20036;-56
2022/11/17 00:59:58;;;;;;;24.30;19.35;;;12.10;1.00;;;;;;5033853;28;20033;-56
2022/11/17 01:02:23;;;;;;;24.55;19.25;;;12.10;1.00;;;;;;5033462;28;20483;-54
2022/11/17 01:04:49;;;;;;;26.00;19.92;;;12.20;1.00;;;;;;5033842;28;20481;-56
2022/11/17 01:07:14;;;;;;;26.35;19.67;;;11.90;1.00;;;;;;5032178;28;20095;-52
2022/11/17 01:09:40;;;;;;;27.33;20.08;;;12.00;1.00;;;;;;5033728;28;20036;-54
2022/11/17 01:12:05;;;;;;;25.13;19.48;;;12.00;1.00;;;;;;5033670;28;20050;-54
2022/11/17 01:14:31;;;;;;;27.92;20.90;;;12.00;1.00;;;;;;5033624;28;20112;-56
2022/11/17 01:16:57;;;;;;;27.17;19.60;;;12.10;1.00;;;;;;5033324;28;20056;-54
2022/11/17 01:19:23;;;;;;;25.95;20.48;;;12.10;1.00;;;;;;5031917;28;20037;-53
2022/11/17 01:21:49;;;;;;;24.08;19.70;;;12.10;1.00;;;;;;5032948;28;20045;-54
2022/11/17 01:24:16;;;;;;;27.23;19.88;;;12.20;1.00;;;;;;5033128;28;20025;-52
2022/11/17 01:26:43;;;;;;;25.13;18.88;;;12.00;1.00;;;;;;5033137;28;20080;-55
2022/11/17 01:29:12;;;;;;;27.40;19.35;;;12.00;1.00;;;;;;5033664;28;20115;-56
2022/11/17 01:31:39;;;;;;;25.25;18.45;;;11.90;1.00;;;;;;5032866;28;20060;-52
2022/11/17 01:34:05;;;;;;;21.83;18.30;;;12.10;1.00;;;;;;5033092;28;20083;-53
2022/11/17 01:39:23;;;;;;;23.58;18.33;;;12.00;1.00;;;;;;5033351;28;20029;-52
2022/11/17 01:41:49;;;;;;;25.33;18.83;;;12.10;1.00;;;;;;5033013;28;20025;-56
2022/11/17 01:44:49;;;;;;;22.88;17.77;;;12.00;1.00;;;;;;5033362;28;20030;-54
2022/11/17 01:47:38;;;;;;;23.80;17.73;;;12.00;1.00;;;;;;5021345;28;20029;-52
2022/11/17 01:50:22;;;;;;;25.38;18.92;;;12.10;1.00;;;;;;5032684;28;20041;-52
2022/11/17 01:52:51;;;;;;;24.50;18.43;;;12.10;1.00;;;;;;5032311;28;20042;-54
2022/11/17 01:55:18;;;;;;;25.02;17.58;;;12.10;1.00;;;;;;5032550;28;20271;-56
2022/11/17 01:57:50;;;;;;;24.42;18.35;;;12.20;1.00;;;;;;5033177;28;20103;-51
2022/11/17 02:00:16;;;;;;;23.58;18.30;;;12.20;1.00;;;;;;5032620;28;20017;-56
2022/11/17 02:02:44;;;;;;;22.38;17.27;;;12.20;1.00;;;;;;5032181;28;20107;-54
2022/11/17 02:05:27;;;;;;;21.67;18.13;;;12.20;1.00;;;;;;5032114;28;20025;-53
2022/11/17 02:07:56;;;;;;;23.92;18.77;;;12.20;1.00;;;;;;5032249;28;20052;-53
2022/11/17 02:10:22;;;;;;;23.40;17.58;;;12.10;1.00;;;;;;5029556;28;20539;-53
2022/11/17 02:12:48;;;;;;;26.40;18.50;;;12.20;1.00;;;;;;5032262;28;20127;-54
2022/11/17 02:15:14;;;;;;;22.50;18.23;;;12.20;1.00;;;;;;5030783;28;20775;-54
2022/11/17 02:17:41;;;;;;;24.75;18.80;;;12.20;1.00;;;;;;5031936;28;20039;-54
2022/11/17 02:20:12;;;;;;;24.38;17.33;;;12.10;1.00;;;;;;5031457;28;20082;-56
2022/11/17 02:23:14;;;;;;;27.90;18.50;;;12.10;1.00;;;;;;5031307;28;20030;-53
2022/11/17 02:26:09;;;;;;;23.80;18.52;;;12.20;1.00;;;;;;5032025;28;20097;-51
2022/11/17 02:29:06;;;;;;;24.05;18.10;;;12.10;1.00;;;;;;5030974;28;20545;-55
2022/11/17 02:32:05;;;;;;;23.92;16.58;;;12.20;1.00;;;;;;5021679;28;20057;-55
2022/11/17 02:34:48;;;;;;;22.52;18.25;;;12.20;1.00;;;;;;5034246;28;20045;-50
2022/11/17 02:37:26;;;;;;;22.92;18.38;;;12.20;1.00;;;;;;5036814;28;20105;-51
2022/11/17 02:40:13;;;;;;;24.00;17.45;;;12.20;1.00;;;;;;5036618;28;20370;-55
2022/11/17 02:45:43;;;;;;;27.25;19.20;;;12.10;1.00;;;;;;5027563;28;20136;-56
2022/11/17 02:48:20;;;;;;;25.50;19.17;;;12.10;1.00;;;;;;5036293;28;20104;-53
2022/11/17 02:50:48;;;;;;;27.60;19.65;;;12.00;1.00;;;;;;5036449;28;20108;-57
2022/11/17 02:53:15;;;;;;;25.67;19.70;;;12.00;1.00;;;;;;5035739;28;20037;-55
2022/11/17 02:55:49;;;;;;;28.23;19.40;;;12.10;1.00;;;;;;5035249;28;20028;-56
2022/11/17 02:58:14;;;;;;;27.88;19.50;;;12.00;1.00;;;;;;5034663;28;20478;-54
2022/11/17 03:00:51;;;;;;;23.63;17.60;;;12.00;1.00;;;;;;5035368;28;20063;-54
2022/11/17 03:03:34;;;;;;;28.13;17.70;;;12.00;1.00;;;;;;5034456;28;20045;-50
2022/11/17 03:06:27;;;;;;;27.35;19.20;;;12.00;1.00;;;;;;5036099;28;20029;-55
2022/11/17 03:09:03;;;;;;;26.33;19.05;;;12.00;1.00;;;;;;5035984;28;20022;-50
2022/11/17 03:11:54;;;;;;;25.50;18.40;;;12.00;1.00;;;;;;5035859;28;20040;-55
2022/11/17 03:14:32;;;;;;;23.65;17.40;;;12.00;1.00;;;;;;5022079;28;20032;-54
2022/11/17 03:17:27;;;;;;;23.92;16.63;;;12.00;1.00;;;;;;5035541;28;20033;-54
2022/11/17 03:20:00;;;;;;;28.67;19.42;;;11.80;1.00;;;;;;5024746;28;20080;-53
2022/11/17 03:22:41;;;;;;;25.42;19.65;;;11.90;1.00;;;;;;5028521;28;20037;-58
2022/11/17 03:25:11;;;;;;;27.38;19.23;;;11.90;1.00;;;;;;5035358;28;20467;-56
2022/11/17 03:27:45;;;;;;;27.13;18.55;;;12.00;1.00;;;;;;5035600;28;20128;-56
2022/11/17 03:30:12;;;;;;;25.48;18.20;;;12.00;1.00;;;;;;5035598;28;20079;-56
2022/11/17 03:32:45;;;;;;;24.25;17.45;;;11.90;1.00;;;;;;5035493;28;20383;-55
2022/11/17 03:35:33;;;;;;;25.85;17.83;;;11.90;1.00;;;;;;5035676;28;20030;-53
2022/11/17 03:38:06;;;;;;;28.88;19.58;;;11.80;1.00;;;;;;5034100;28;20041;-56
2022/11/17 03:40:34;;;;;;;28.48;18.13;;;11.80;1.00;;;;;;5035279;28;20022;-55
2022/11/17 03:43:03;;;;;;;25.00;19.35;;;11.90;1.00;;;;;;5034909;28;20021;-56
2022/11/17 03:45:34;;;;;;;26.10;19.33;;;11.90;1.00;;;;;;5035039;28;20030;-55
2022/11/17 03:48:09;;;;;;;28.30;20.67;;;11.90;1.00;;;;;;5035063;28;20204;-55
2022/11/17 03:51:03;;;;;;;;;;;11.90;1.00;;;;;;5035890;28;20072;-55
2022/11/17 03:53:29;;;;;;;27.08;20.55;;;11.90;1.00;;;;;;5025812;28;19991;-54
2022/11/17 03:56:13;;;;;;;29.08;20.02;;;11.90;1.00;;;;;;5035102;28;20112;-52
2022/11/17 03:58:49;;;;;;;28.80;20.07;;;11.90;1.00;;;;;;5021275;28;20477;-54
2022/11/17 04:01:15;;;;;;;29.30;20.83;;;11.90;1.00;;;;;;5034828;28;20761;-55
2022/11/17 04:03:41;;;;;;;28.83;20.95;;;11.90;1.00;;;;;;5034482;28;20041;-56
2022/11/17 04:06:06;;;;;;;25.42;20.10;;;11.90;1.00;;;;;;5034613;28;20033;-55
2022/11/17 04:08:32;;;;;;;28.70;21.38;;;12.00;1.00;;;;;;5033888;28;20033;-54
2022/11/17 04:16:26;;;;;;;28.52;21.08;;;11.90;1.00;;;;;;5034802;28;20070;-53
2022/11/17 04:18:51;;;;;;;31.08;21.27;;;11.90;1.00;;;;;;5034562;28;20108;-52
2022/11/17 04:21:17;;;;;;;27.42;21.27;;;11.90;1.00;;;;;;5034586;28;20021;-54
2022/11/17 04:23:43;;;;;;;29.50;20.92;;;11.80;1.00;;;;;;5034062;28;20382;-55
2022/11/17 04:28:54;;;;;;;32.53;22.48;;;11.90;1.00;;;;;;5034572;28;20060;-51
2022/11/17 04:31:22;;;;;;;36.90;23.25;;;11.90;1.00;;;;;;5034152;28;20021;-54
2022/11/17 04:33:50;;;;;;;34.00;24.10;;;11.80;1.00;;;;;;5032761;28;20032;-51
2022/11/17 04:36:20;;;;;;;31.52;22.45;;;11.70;1.00;;;;;;5034521;28;20029;-53
2022/11/17 04:38:48;;;;;;;30.85;21.77;;;11.80;1.00;;;;;;5034137;28;20044;-50
2022/11/17 04:43:59;;;;;;;;;;;11.70;1.00;;;;;;5033636;28;20079;-52
2022/11/17 04:46:26;;;;;;;31.65;22.40;;;11.70;1.00;;;;;;5034189;28;19905;-49
2022/11/17 04:48:53;;;;;;;29.40;20.67;;;11.70;1.00;;;;;;5034137;28;20109;-54
2022/11/17 04:51:19;;;;;;;31.90;21.02;;;11.70;1.00;;;;;;5033658;28;20029;-51
2022/11/17 04:53:45;;;;;;;28.95;19.95;;;11.70;1.00;;;;;;5033690;28;20041;-52
2022/11/17 04:56:12;;;;;;;33.15;21.65;;;11.70;1.00;;;;;;5032871;28;20021;-51
2022/11/17 04:58:38;;;;;;;33.85;22.60;;;11.70;1.00;;;;;;5033469;28;20135;-50
2022/11/17 05:01:13;;;;;;;30.02;21.67;;;11.70;1.00;;;;;;5030947;28;20082;-55
2022/11/17 05:03:53;;;;;;;30.23;22.65;;;11.70;1.00;;;;;;5033898;28;20025;-54
2022/11/17 05:06:23;;;;;;;33.58;21.83;;;11.70;1.00;;;;;;5033343;28;20021;-50
2022/11/17 05:08:50;;;;;;;32.72;21.25;;;11.60;1.00;;;;;;5033850;28;20039;-52
2022/11/17 05:14:01;;;;;;;;;;;11.50;1.00;;;;;;5032985;28;20051;-54
2022/11/17 05:19:32;;;;;;;29.83;19.95;;;11.50;1.00;;;;;;5001001;28;20535;-49
2022/11/17 05:21:58;;;;;;;33.30;21.90;;;11.50;1.00;;;;;;5011376;28;20034;-51
2022/11/17 05:24:25;;;;;;;33.15;21.98;;;11.60;1.00;;;;;;5021769;28;20040;-51
2022/11/17 05:26:51;;;;;;;32.30;22.05;;;11.70;1.00;;;;;;5033032;28;20045;-52
2022/11/17 05:29:19;;;;;;;31.50;22.05;;;11.60;1.00;;;;;;5031973;28;20091;-51
2022/11/17 05:31:46;;;;;;;31.73;23.02;;;11.50;1.00;;;;;;5033276;28;20037;-54
2022/11/17 05:34:13;;;;;;;33.83;21.63;;;11.60;1.00;;;;;;5031308;28;20099;-50
2022/11/17 05:36:40;;;;;;;34.95;22.02;;;11.50;1.00;;;;;;5023405;28;20038;-56
2022/11/17 05:39:06;;;;;;;34.55;23.42;;;11.50;1.00;;;;;;5032999;28;20021;-56
2022/11/17 05:41:32;;;;;;;33.78;22.63;;;11.50;1.00;;;;;;5032853;28;20541;-56
2022/11/17 05:43:58;;;;;;;32.30;23.15;;;11.50;1.00;;;;;;5033143;28;20021;-55
2022/11/17 05:46:25;;;;;;;34.53;22.10;;;11.60;1.00;;;;;;5032830;28;20379;-55
2022/11/17 05:48:52;;;;;;;30.67;22.95;;;11.50;1.00;;;;;;5033062;28;20025;-53
2022/11/17 05:51:21;;;;;;;33.33;22.88;;;11.50;1.00;;;;;;5020806;28;20025;-55
2022/11/17 05:53:47;;;;;;;31.85;22.73;;;11.50;1.00;;;;;;5032796;28;20060;-55
2022/11/17 05:56:21;;;;;;;32.90;22.67;;;11.50;1.00;;;;;;5032793;28;20029;-56
2022/11/17 05:58:56;;;;;;;34.08;23.75;;;11.50;1.00;;;;;;5020083;28;20072;-54
2022/11/17 06:01:22;;;;;;;33.83;22.75;;;11.50;1.00;;;;;;5032591;28;20073;-52
2022/11/17 06:03:53;;;;;;;33.30;24.17;;;11.50;1.00;;;;;;5032788;28;20032;-54
2022/11/17 06:06:20;;;;;;;34.00;24.52;;;11.50;1.00;;;;;;5032904;28;20024;-55
2022/11/17 06:08:45;;;;;;;33.50;23.60;;;11.50;1.00;;;;;;5034425;28;20026;-55
2022/11/17 06:11:11;;;;;;;35.35;23.92;;;11.50;1.00;;;;;;5035919;28;20032;-53
2022/11/17 06:13:37;;;;;;;35.80;23.77;;;11.40;1.00;;;;;;5036587;28;20394;-56
2022/11/17 06:16:06;;;;;;;33.67;22.67;;;11.50;1.00;;;;;;5036950;28;20053;-54
2022/11/17 06:18:37;;;;;;;34.67;23.45;;;11.50;1.00;;;;;;5036633;28;20056;-56
2022/11/17 06:21:04;;;;;;;37.22;22.73;;;11.50;1.00;;;;;;5036575;28;20026;-54
2022/11/17 06:23:31;;;;;;;32.67;22.75;;;11.60;1.00;;;;;;5036468;28;20044;-55
2022/11/17 06:25:58;;;;;;;31.08;22.17;;;11.60;1.00;;;;;;5036551;28;20072;-53
2022/11/17 06:28:28;;;;;;;31.48;23.15;;;11.60;1.00;;;;;;5036682;28;20030;-54
2022/11/17 06:30:54;;;;;;;32.05;23.30;;;11.60;1.00;;;;;;5047128;28;20464;-54
2022/11/17 06:33:20;;;;;;;32.47;22.42;;;11.60;1.00;;;;;;5028680;28;20069;-56
2022/11/17 06:35:47;;;;;;;30.70;21.38;;;11.60;1.00;;;;;;5036266;28;20033;-51
2022/11/17 06:38:13;;;;;;;32.17;22.90;;;11.70;1.00;;;;;;5036403;28;20061;-51
2022/11/17 06:40:39;;;;;;;30.70;21.45;;;11.70;1.00;;;;;;5036056;28;20423;-54
2022/11/17 06:43:08;;;;;;;30.38;23.20;;;11.70;1.00;;;;;;5036316;28;20028;-50
2022/11/17 06:45:41;;;;;;;31.63;21.27;;;11.70;1.00;;;;;;5036176;28;20345;-52
2022/11/17 06:48:08;;;;;;;38.97;23.20;;;11.80;1.00;;;;;;5036666;28;20454;-53
2022/11/17 06:50:34;;;;;;;32.55;23.30;;;11.80;1.00;;;;;;5034840;28;20418;-51
2022/11/17 06:53:03;;;;;;;31.35;21.90;;;11.90;1.00;;;;;;5036110;28;20037;-53
2022/11/17 06:55:29;;;;;;;31.90;21.48;;;11.90;1.00;;;;;;5035290;28;20021;-55
2022/11/17 06:57:59;;;;;;;32.70;23.08;;;11.90;1.00;;;;;;5035893;28;20136;-53
2022/11/17 07:00:26;;;;;;;30.88;22.55;;;11.90;1.00;;;;;;5035538;28;20104;-50
2022/11/17 07:02:51;;;;;;;32.08;21.85;;;11.90;1.00;;;;;;5035647;28;20049;-52
2022/11/17 07:05:17;;;;;;;34.63;23.90;;;11.90;1.00;;;;;;5035579;28;20030;-53
2022/11/17 07:07:42;;;;;;;33.20;24.00;;;11.90;1.00;;;;;;5029961;28;20463;-54
2022/11/17 07:10:08;;;;;;;30.05;22.77;;;12.00;1.00;;;;;;5035778;28;20033;-50
2022/11/17 07:12:34;;;;;;;31.75;21.88;;;12.00;1.00;;;;;;5035513;28;20167;-50
2022/11/17 07:15:00;;;;;;;31.98;22.45;;;12.00;1.00;;;;;;5035970;28;20057;-50
2022/11/17 07:17:25;;;;;;;35.55;22.75;;;11.90;1.00;;;;;;5035501;28;20036;-54
2022/11/17 07:19:53;;;;;;;35.03;23.48;;;11.90;1.00;;;;;;5034754;28;20040;-52
2022/11/17 07:22:18;;;;;;;33.88;24.50;;;11.90;1.00;;;;;;5035722;28;20397;-51
2022/11/17 07:24:44;;;;;;;31.95;22.88;;;11.90;1.00;;;;;;5035514;28;20029;-54
2022/11/17 07:27:10;;;;;;;29.65;21.83;;;11.90;1.00;;;;;;5035637;28;20033;-55
2022/11/17 07:29:35;;;;;;;31.30;22.63;;;11.80;1.00;;;;;;5035309;28;20033;-49
2022/11/17 07:32:01;;;;;;;37.70;24.10;;;11.80;1.00;;;;;;5033913;28;20052;-54
2022/11/17 07:34:26;;;;;;;32.83;24.90;;;11.90;1.00;;;;;;5035137;28;20030;-51
2022/11/17 07:36:52;;;;;;;37.67;24.40;;;12.10;1.00;;;;;;5035570;28;20029;-53
2022/11/17 07:39:17;;;;;;;37.75;25.02;;;12.20;1.00;;;;;;5035387;28;20379;-50
2022/11/17 07:41:43;;;;;;;37.03;24.60;;;12.20;1.00;;;;;;5035427;28;20026;-52
2022/11/17 07:44:10;;;;;;;38.55;25.08;;;12.30;1.00;;;;;;5035063;28;20029;-55
2022/11/17 07:46:36;;;;;;;35.20;24.17;;;12.30;1.00;;;;;;5035075;28;20105;-54
2022/11/17 07:49:01;;;;;;;34.00;23.58;;;12.40;1.00;;;;;;5035079;28;20112;-53
2022/11/17 07:51:27;;;;;;;34.45;23.13;;;12.40;1.00;;;;;;5034604;28;20113;-52
2022/11/17 07:53:53;;;;;;;34.45;23.95;;;12.40;1.00;;;;;;5035005;28;20386;-54
2022/11/17 07:56:18;;;;;;;34.67;23.35;;;12.40;1.00;;;;;;5034797;28;20040;-49
2022/11/17 07:58:44;;;;;;;31.17;23.27;;;12.50;1.00;;;;;;5033653;28;20494;-50
2022/11/17 08:01:14;;;;;;;31.73;23.42;;;12.60;1.00;;;;;;5033225;28;20036;-50
2022/11/17 08:03:40;;;;;;;38.40;26.02;;;12.60;1.00;;;;;;5034784;28;20099;-55
2022/11/17 08:06:08;;;;;;;37.88;24.88;;;12.60;1.00;;;;;;5034719;28;20517;-55
2022/11/17 08:08:34;;;;;;;34.40;24.15;;;12.60;1.00;;;;;;5034920;28;20030;-52
2022/11/17 08:11:04;;;;;;;31.02;22.90;;;12.70;1.00;;;;;;5034627;28;20029;-56
2022/11/17 08:13:30;;;;;;;34.63;23.65;;;12.60;1.00;;;;;;5034668;28;20455;-54
2022/11/17 08:15:57;;;;;;;36.28;25.60;;;12.70;1.00;;;;;;5034732;28;20032;-53
2022/11/17 08:18:24;;;;;;;33.45;24.10;;;12.70;1.00;;;;;;5034526;28;20025;-55
2022/11/17 08:20:49;;;;;;;32.42;23.17;;;12.80;1.00;;;;;;5034366;28;20061;-52
2022/11/17 08:23:15;;;;;;;33.60;22.80;;;12.80;1.00;;;;;;5034628;28;20053;-55
2022/11/17 08:25:40;;;;;;;31.70;23.80;;;12.80;1.00;;;;;;5034716;28;20476;-55
2022/11/17 08:28:06;;;;;;;32.40;23.05;;;12.90;1.00;;;;;;5034436;28;20025;-56
2022/11/17 08:30:34;;;;;;;29.77;22.85;;;12.90;1.00;;;;;;5033804;28;20025;-56
2022/11/17 08:33:00;;;;;;;37.45;24.50;;;12.90;1.00;;;;;;5033615;28;20124;-57
2022/11/17 08:35:25;;;;;;;36.72;24.38;;;13.00;1.00;;;;;;5034466;28;20491;-56
2022/11/17 08:37:52;;;;;;;35.55;24.25;;;13.00;1.00;;;;;;5034215;28;20021;-54
2022/11/17 08:40:18;;;;;;;40.47;26.65;;;13.10;1.00;;;;;;5033949;28;20021;-54
2022/11/17 08:42:44;;;;;;;31.85;23.48;;;13.00;1.00;;;;;;5033864;28;20112;-56
2022/11/17 08:45:11;;;;;;;37.10;24.38;;;13.00;1.00;;;;;;5034161;28;20037;-56
2022/11/17 08:47:37;;;;;;;32.92;24.55;;;13.10;1.00;;;;;;5032765;28;20037;-54
2022/11/17 08:50:07;;;;;;;33.80;22.98;;;13.10;1.00;;;;;;5033872;28;20470;-53
2022/11/17 08:52:33;;;;;;;33.30;23.05;;;13.20;1.00;;;;;;5032437;28;20060;-56
2022/11/17 08:54:58;;;;;;;32.50;24.05;;;13.10;1.00;;;;;;5032527;28;20021;-57
2022/11/17 08:57:24;;;;;;;36.95;23.13;;;13.10;1.00;;;;;;5033929;28;20028;-52
2022/11/17 08:59:50;;;;;;;39.03;25.20;;;13.20;1.00;;;;;;5015746;28;20029;-55
2022/11/17 09:02:16;;;;;;;35.83;24.38;;;13.20;1.00;;;;;;5033503;28;20052;-53
2022/11/17 09:04:41;;;;;;;40.85;26.75;;;13.20;1.00;;;;;;5033586;28;20026;-52
2022/11/17 09:07:07;;;;;;;39.15;23.85;;;13.20;1.00;;;;;;5032269;28;20021;-54
2022/11/17 09:09:33;;;;;;;39.35;23.75;;;13.20;1.00;;;;;;5033624;28;20029;-56
2022/11/17 09:11:59;;;;;;;41.50;24.52;;;13.20;1.00;;;;;;5033528;28;20051;-55
2022/11/17 09:14:25;;;;;;;38.80;23.73;;;13.30;1.00;;;;;;5033618;28;20029;-56
2022/11/17 09:16:51;;;;;;;37.88;24.83;;;13.30;1.00;;;;;;5031721;28;20021;-50
2022/11/17 09:19:17;;;;;;;36.38;26.00;;;13.30;1.00;;;;;;5033144;28;20032;-54
2022/11/17 09:21:43;;;;;;;34.75;24.02;;;13.20;1.00;;;;;;5032468;28;20035;-56
2022/11/17 09:24:09;;;;;;;35.00;23.42;;;13.30;1.00;;;;;;5032697;28;20463;-54
2022/11/17 09:26:39;;;;;;;33.97;23.30;;;13.50;1.00;;;;;;5032795;28;20033;-54
2022/11/17 09:29:05;;;;;;;37.53;23.90;;;13.40;1.00;;;;;;5019854;28;20414;-51
2022/11/17 09:31:31;;;;;;;30.35;22.65;;;13.40;1.00;;;;;;5031499;28;20483;-54
2022/11/17 09:33:57;;;;;;;35.40;24.65;;;13.40;1.00;;;;;;5033242;28;20014;-50
2022/11/17 09:36:22;;;;;;;34.53;23.25;;;13.30;1.00;;;;;;5032864;28;20518;-50
2022/11/17 09:38:49;;;;;;;34.10;25.17;;;13.30;1.00;;;;;;5032093;28;20463;-49
2022/11/17 09:41:15;;;;;;;39.20;24.27;;;13.40;1.00;;;;;;5033000;28;20022;-50
2022/11/17 09:43:58;;;;;;;35.92;22.70;;;13.30;1.00;;;;;;5032535;28;20021;-51
2022/11/17 09:46:48;;;;;;;32.45;24.08;;;13.30;1.00;;;;;;5032742;28;20060;-52
2022/11/17 09:49:21;;;;;;;28.38;22.40;;;13.20;1.00;;;;;;5032321;28;20159;-54
2022/11/17 09:51:48;;;;;;;32.67;21.58;;;13.10;1.00;;;;;;5032838;28;20037;-55
2022/11/17 09:54:29;;;;;;;32.25;22.02;;;13.20;1.00;;;;;;5033089;28;20040;-56
2022/11/17 09:56:57;;;;;;;25.15;20.75;;;13.20;1.00;;;;;;5032760;28;20017;-52
2022/11/17 09:59:26;;;;;;;27.52;20.88;;;13.30;1.00;;;;;;5032592;28;20032;-49
2022/11/17 10:01:52;;;;;;;28.00;20.42;;;13.30;1.00;;;;;;5032020;28;20112;-52
2022/11/17 10:04:19;;;;;;;28.60;20.85;;;13.20;1.00;;;;;;5032798;28;20096;-49
2022/11/17 10:06:49;;;;;;;27.60;19.30;;;13.30;1.00;;;;;;5032499;28;20494;-52
2022/11/17 10:09:26;;;;;;;28.30;21.92;;;13.20;1.00;;;;;;5032812;28;20100;-53
2022/11/17 10:11:58;;;;;;;26.10;20.90;;;13.40;1.00;;;;;;5032771;28;20057;-54
2022/11/17 10:14:28;;;;;;;26.48;20.42;;;13.30;1.00;;;;;;5032888;28;20045;-52
2022/11/17 10:16:56;;;;;;;26.50;20.30;;;13.30;1.00;;;;;;5032561;28;20096;-49
2022/11/17 10:19:26;;;;;;;28.80;22.13;;;13.40;1.00;;;;;;5032769;28;20023;-54
2022/11/17 10:22:00;;;;;;;31.95;22.45;;;13.60;1.00;;;;;;5032949;28;20479;-55
2022/11/17 10:24:33;;;;;;;27.58;20.65;;;13.60;1.00;;;;;;5032520;28;20441;-58
2022/11/17 10:27:21;;;;;;;30.85;21.83;;;13.50;1.00;;;;;;5032577;28;20021;-51
2022/11/17 10:30:06;;;;;;;28.80;21.77;;;13.60;1.00;;;;;;5032916;28;20375;-54
2022/11/17 10:32:47;;;;;;;28.60;21.63;;;13.70;1.00;;;;;;5019179;28;20112;-56
2022/11/17 10:35:38;;;;;;;24.73;20.25;;;13.60;1.00;;;;;;5032439;28;20622;-54
2022/11/17 10:38:07;;;;;;;32.70;21.73;;;13.60;1.00;;;;;;5031468;28;20072;-54
2022/11/17 10:40:47;;;;;;;30.70;23.08;;;13.70;1.00;;;;;;5032302;28;20108;-53
2022/11/17 10:43:13;;;;;;;33.15;22.75;;;13.80;1.00;;;;;;5032164;28;20022;-51
2022/11/17 10:45:54;;;;;;;32.20;22.35;;;14.10;1.00;;;;;;5032365;28;20028;-55
2022/11/17 10:48:34;;;;;;;29.88;23.20;;;13.90;1.00;;;;;;5032600;28;20061;-54
2022/11/17 10:51:09;;;;;;;32.08;23.45;;;14.10;1.00;;;;;;5032132;28;20014;-52
2022/11/17 10:53:40;;;;;;;32.63;23.95;;;14.20;1.00;;;;;;5032633;28;20112;-51
2022/11/17 10:56:14;;;;;;;29.20;23.30;;;14.30;1.00;;;;;;5035225;28;20032;-50
2022/11/17 10:59:37;;;;;;;32.22;23.98;;;14.30;1.00;;;;;;5036008;28;20021;-54
2022/11/17 11:02:24;;;;;;;30.73;23.70;;;14.30;1.00;;;;;;4966546;28;20054;-51
2022/11/17 11:05:03;;;;;;;34.45;24.80;;;14.40;1.00;;;;;;4961498;28;20063;-50
2022/11/17 11:07:29;;;;;;;29.83;22.73;;;14.50;1.00;;;;;;5017857;28;20025;-52
2022/11/17 11:09:54;;;;;;;31.42;23.15;;;14.40;1.00;;;;;;5034200;28;20136;-51
2022/11/17 11:12:34;;;;;;;26.27;23.15;;;14.30;1.00;;;;;;5035823;28;20041;-50
2022/11/17 11:15:02;;;;;;;30.75;22.27;;;14.40;1.00;;;;;;5033639;28;20083;-56
2022/11/17 11:17:28;;;;;;;29.15;23.42;;;14.40;1.00;;;;;;5033936;28;20021;-53
2022/11/17 11:19:55;;;;;;;35.75;27.23;;;14.30;1.00;;;;;;5034201;28;20364;-57
2022/11/17 11:22:29;;;;;;;31.17;24.40;;;14.30;1.00;;;;;;5035598;28;20025;-56
2022/11/17 11:25:13;;;;;;;;;;;14.40;1.00;;;;;;5035943;28;20043;-56
2022/11/17 11:27:53;;;;;;;28.70;22.70;;;14.20;1.00;;;;;;5035536;28;19905;-55
2022/11/17 11:30:19;;;;;;;29.30;22.45;;;14.10;1.00;;;;;;5035623;28;20390;-56
2022/11/17 11:32:53;;;;;;;29.15;23.73;;;14.10;1.00;;;;;;5034003;28;20129;-52
2022/11/17 11:35:37;;;;;;;28.08;22.33;;;14.20;1.00;;;;;;5035347;28;20024;-51
2022/11/17 11:38:21;;;;;;;33.15;24.20;;;13.90;1.00;;;;;;5024863;28;20036;-56
2022/11/17 11:41:03;;;;;;;30.13;24.13;;;13.90;1.00;;;;;;5021148;28;20048;-55
2022/11/17 11:43:48;;;;;;;33.80;24.55;;;14.10;1.00;;;;;;5035480;28;20037;-51
2022/11/17 11:46:30;;;;;;;35.08;25.45;;;14.10;1.00;;;;;;5035157;28;20053;-55
2022/11/17 11:49:00;;;;;;;31.40;23.45;;;14.00;1.00;;;;;;5034968;28;20021;-56
2022/11/17 11:51:36;;;;;;;28.67;23.17;;;14.00;1.00;;;;;;5034926;28;20033;-53
2022/11/17 11:54:22;;;;;;;29.42;22.65;;;14.20;1.00;;;;;;5035058;28;20091;-52
2022/11/17 11:56:49;;;;;;;33.45;24.35;;;14.30;1.00;;;;;;5033823;28;20396;-54
2022/11/17 11:59:39;;;;;;;32.28;24.17;;;14.20;1.00;;;;;;5033551;28;20079;-52
2022/11/17 12:02:10;;;;;;;29.05;22.88;;;14.20;1.00;;;;;;5030960;28;20045;-55
2022/11/17 12:04:51;;;;;;;28.20;24.45;;;14.30;1.00;;;;;;5021773;28;20030;-50
2022/11/17 12:07:39;;;;;;;31.85;23.40;;;14.30;1.00;;;;;;5034560;28;20026;-51
2022/11/17 12:10:28;;;;;;;36.20;25.42;;;14.20;1.00;;;;;;5035080;28;20025;-51
2022/11/17 12:12:54;;;;;;;34.88;26.35;;;14.40;1.00;;;;;;5034547;28;20080;-56
2022/11/17 12:15:20;;;;;;;31.05;24.77;;;14.40;1.00;;;;;;5034810;28;20034;-54
2022/11/17 12:17:51;;;;;;;29.88;25.52;;;14.50;1.00;;;;;;5034250;28;20032;-56
2022/11/17 12:20:34;;;;;;;34.15;25.65;;;14.50;1.00;;;;;;5034460;28;20390;-55
2022/11/17 12:23:09;;;;;;;33.97;25.48;;;14.40;1.00;;;;;;5033992;28;20108;-53
2022/11/17 12:25:42;;;;;;;32.25;25.88;;;14.30;1.00;;;;;;5035040;28;20087;-54
2022/11/17 12:28:34;;;;;;;38.75;27.73;;;14.50;1.00;;;;;;5034257;28;20080;-54
2022/11/17 12:31:08;;;;;;;31.90;25.58;;;14.50;1.00;;;;;;5034058;28;20032;-56
2022/11/17 12:33:52;;;;;;;38.95;27.67;;;14.30;1.00;;;;;;5034461;28;20052;-53
2022/11/17 12:36:31;;;;;;;37.53;28.48;;;14.30;1.00;;;;;;5034120;28;20099;-53
2022/11/17 12:38:58;;;;;;;36.92;27.20;;;14.30;1.00;;;;;;5034119;28;20029;-54
2022/11/17 12:41:45;;;;;;;39.58;27.35;;;14.40;1.00;;;;;;5034036;28;20105;-53
2022/11/17 12:44:32;;;;;;;33.38;26.45;;;14.40;1.00;;;;;;5020979;28;20032;-57
2022/11/17 12:47:10;;;;;;;37.85;28.15;;;14.50;1.00;;;;;;5034108;28;20031;-56
2022/11/17 12:50:14;;;;;;;37.90;26.77;;;14.30;1.00;;;;;;5033733;28;20026;-52
2022/11/17 12:52:58;;;;;;;32.75;26.15;;;14.40;1.00;;;;;;5033705;28;20037;-55
2022/11/17 12:55:27;;;;;;;33.67;26.48;;;14.40;1.00;;;;;;5020041;28;20022;-52
2022/11/17 12:58:23;;;;;;;36.28;27.02;;;14.50;1.00;;;;;;5033606;28;20033;-55
2022/11/17 13:01:16;;;;;;;30.38;25.48;;;14.60;1.00;;;;;;5022574;28;20075;-48
2022/11/17 13:03:46;;;;;;;29.80;24.25;;;14.50;1.00;;;;;;5033351;28;20483;-51
2022/11/17 13:06:14;;;;;;;33.38;25.75;;;14.50;1.00;;;;;;5033524;28;20021;-52
2022/11/17 13:08:59;;;;;;;28.55;23.63;;;14.60;1.00;;;;;;5033580;28;20057;-52
2022/11/17 13:11:26;;;;;;;30.83;22.38;;;14.60;1.00;;;;;;5032058;28;20491;-55
2022/11/17 13:14:14;;;;;;;27.02;22.20;;;14.60;1.00;;;;;;5033617;28;20025;-54
2022/11/17 13:16:49;;;;;;;28.75;21.15;;;14.80;1.00;;;;;;5033590;28;20021;-55
2022/11/17 13:19:36;;;;;;;28.27;22.17;;;14.80;1.00;;;;;;5019633;28;20025;-54
2022/11/17 13:22:10;;;;;;;28.48;22.00;;;14.70;1.00;;;;;;5033456;28;20100;-53
2022/11/17 13:24:38;;;;;;;28.13;23.58;;;14.90;1.00;;;;;;5033438;28;20430;-51
2022/11/17 13:27:06;;;;;;;28.02;22.73;;;14.80;1.00;;;;;;5033183;28;20108;-52
2022/11/17 13:29:32;;;;;;;29.13;22.95;;;14.80;1.00;;;;;;5033085;28;20022;-51
2022/11/17 13:32:19;;;;;;;26.73;21.27;;;14.90;1.00;;;;;;5033106;28;20127;-54